createdAt,value
2022-10-09T13:19:32.027Z,9.00
2022-10-09T13:22:07.995Z,8.40
2022-10-09T13:24:36.462Z,8.20
2022-10-09T13:27:05.578Z,8.10
2022-10-09T13:29:34.172Z,7.70
2022-10-09T13:32:03.567Z,7.60
2022-10-09T13:34:32.065Z,6.40
2022-10-09T13:37:00.607Z,6.50
2022-10-09T13:39:30.218Z,5.70
2022-10-09T13:41:59.885Z,5.90
2022-10-09T13:44:29.323Z,6.50
2022-10-09T13:46:57.853Z,6.50
2022-10-09T13:49:29.286Z,6.40
2022-10-09T13:51:57.869Z,7.10
2022-10-09T13:54:26.650Z,7.00
2022-10-09T13:56:55.615Z,7.10
2022-10-09T13:59:24.831Z,6.90
2022-10-09T14:01:54.582Z,7.40
2022-10-09T14:04:23.599Z,7.20
2022-10-09T14:06:53.576Z,7.30
2022-10-09T14:09:23.312Z,7.00
2022-10-09T14:11:51.994Z,8.10
2022-10-09T14:14:23.100Z,7.40
2022-10-09T14:16:51.925Z,7.80
2022-10-09T14:19:24.920Z,9.20
2022-10-09T14:21:58.582Z,9.10
2022-10-09T14:24:33.279Z,8.40
2022-10-09T14:27:08.604Z,10.20
2022-10-09T14:29:40.299Z,10.30
2022-10-09T14:32:08.962Z,10.60
2022-10-09T14:34:39.472Z,11.10
2022-10-09T14:37:29.672Z,9.80
2022-10-09T14:40:02.526Z,10.50
2022-10-09T14:42:31.173Z,11.30
2022-10-09T14:45:02.487Z,12.00
2022-10-09T14:47:31.169Z,9.90
2022-10-09T14:50:01.441Z,11.40
2022-10-09T14:52:30.812Z,10.30
2022-10-09T14:54:59.450Z,11.50
2022-10-09T14:57:35.844Z,10.80
2022-10-09T15:00:08.872Z,11.80
2022-10-09T15:02:38.437Z,11.30
2022-10-09T15:05:07.490Z,11.30
2022-10-09T15:07:36.369Z,11.60
2022-10-09T15:10:05.691Z,12.40
2022-10-09T15:12:43.226Z,13.10
2022-10-09T15:15:11.735Z,12.70
2022-10-09T15:17:40.790Z,12.30
2022-10-09T15:20:09.853Z,13.00
2022-10-09T15:22:38.799Z,12.60
2022-10-09T15:25:08.498Z,13.00
2022-10-09T15:27:36.983Z,12.70
2022-10-09T15:30:12.178Z,13.40
2022-10-09T15:32:44.706Z,12.50
2022-10-09T15:35:19.161Z,13.50
2022-10-09T15:37:55.767Z,13.70
2022-10-09T15:40:25.124Z,12.10
2022-10-09T15:42:54.049Z,12.90
2022-10-09T15:45:22.889Z,13.90
2022-10-09T15:48:00.183Z,12.90
2022-10-09T15:50:28.804Z,13.50
2022-10-09T15:53:11.838Z,13.20
2022-10-09T15:55:53.051Z,13.90
2022-10-09T15:58:21.812Z,14.20
2022-10-09T16:00:51.528Z,13.80
2022-10-09T16:03:21.310Z,14.20
2022-10-09T16:05:52.980Z,14.50
2022-10-09T16:08:31.615Z,14.50
2022-10-09T16:11:12.571Z,14.10
2022-10-09T16:13:48.226Z,14.30
2022-10-09T16:16:28.630Z,13.70
2022-10-09T16:18:58.481Z,13.10
2022-10-09T16:21:29.920Z,13.30
2022-10-09T16:24:02.215Z,13.70
2022-10-09T16:26:32.659Z,14.40
2022-10-09T16:29:02.288Z,14.10
2022-10-09T16:31:36.639Z,13.70
2022-10-09T16:34:08.156Z,9.90
2022-10-09T16:36:36.972Z,13.20
2022-10-09T16:39:06.526Z,13.70
2022-10-09T16:41:41.863Z,12.50
2022-10-09T16:44:15.471Z,11.70
2022-10-09T16:46:44.499Z,11.50
2022-10-09T16:49:21.360Z,11.70
2022-10-09T16:51:58.767Z,11.30
2022-10-09T16:54:32.606Z,10.40
2022-10-09T16:57:04.886Z,9.10
2022-10-09T16:59:47.371Z,8.60
2022-10-09T17:02:16.754Z,9.10
2022-10-09T17:04:46.529Z,8.90
2022-10-09T17:07:15.436Z,8.50
2022-10-09T17:09:45.674Z,7.60
2022-10-09T17:12:24.779Z,8.10
2022-10-09T17:15:02.165Z,8.90
2022-10-09T17:17:39.601Z,7.50
2022-10-09T17:20:09.300Z,8.50
2022-10-09T17:22:38.674Z,7.10
2022-10-09T17:25:16.451Z,7.40
2022-10-09T17:28:14.337Z,7.20
2022-10-09T17:30:50.921Z,7.10
2022-10-09T17:36:25.404Z,6.70
2022-10-09T17:39:34.265Z,7.00
2022-10-09T17:42:28.077Z,6.90
2022-10-09T17:47:42.309Z,7.30
2022-10-09T17:50:15.679Z,6.80
2022-10-09T17:52:49.595Z,7.00
2022-10-09T17:55:23.556Z,8.00
2022-10-09T17:57:55.041Z,7.90
2022-10-09T18:00:30.129Z,8.40
2022-10-09T18:02:58.851Z,6.30
2022-10-09T18:05:27.419Z,6.80
2022-10-09T18:07:56.864Z,7.20
2022-10-09T18:10:26.837Z,7.00
2022-10-09T18:12:58.479Z,7.60
2022-10-09T18:15:27.063Z,7.30
2022-10-09T18:17:58.888Z,6.90
2022-10-09T18:20:35.379Z,6.00
2022-10-09T18:23:22.701Z,6.10
2022-10-09T18:25:52.130Z,6.40
2022-10-09T18:28:21.075Z,6.70
2022-10-09T18:31:06.095Z,7.20
2022-10-09T18:33:39.793Z,7.40
2022-10-09T18:36:32.056Z,6.40
2022-10-09T18:39:10.021Z,6.10
2022-10-09T18:41:38.719Z,6.60
2022-10-09T18:44:15.494Z,7.10
2022-10-09T18:46:59.802Z,6.70
2022-10-09T18:49:34.932Z,6.20
2022-10-09T18:52:04.230Z,5.90
2022-10-09T18:54:33.158Z,5.70
2022-10-09T18:57:08.897Z,5.00
2022-10-09T18:59:39.017Z,5.80
2022-10-09T19:02:08.084Z,5.90
2022-10-09T19:04:37.875Z,6.50
2022-10-09T19:07:08.178Z,5.30
2022-10-09T19:09:41.481Z,4.70
2022-10-09T19:12:10.835Z,4.80
2022-10-09T19:14:39.516Z,5.10
2022-10-09T19:17:08.371Z,5.90
2022-10-09T19:19:40.744Z,4.70
2022-10-09T19:22:14.103Z,5.20
2022-10-09T19:24:49.549Z,4.60
2022-10-09T19:27:18.369Z,4.20
2022-10-09T19:29:46.990Z,4.80
2022-10-09T19:32:20.283Z,5.10
2022-10-09T19:34:50.257Z,4.70
2022-10-09T19:37:18.926Z,5.20
2022-10-09T19:39:50.083Z,4.40
2022-10-09T19:42:19.298Z,4.50
2022-10-09T19:44:47.982Z,5.10
2022-10-09T19:47:19.190Z,4.70
2022-10-09T19:49:52.066Z,4.50
2022-10-09T19:52:21.051Z,4.90
2022-10-09T19:54:49.683Z,4.40
2022-10-09T19:57:18.062Z,4.60
2022-10-09T19:59:48.110Z,5.00
2022-10-09T20:02:16.566Z,5.20
2022-10-09T20:04:48.706Z,4.50
2022-10-09T20:07:17.841Z,4.90
2022-10-09T20:09:46.317Z,5.10
2022-10-09T20:12:14.940Z,5.30
2022-10-09T20:14:43.584Z,4.80
2022-10-09T20:17:12.427Z,5.30
2022-10-09T20:19:44.867Z,4.50
2022-10-09T20:22:14.222Z,4.70
2022-10-09T20:24:42.820Z,5.10
2022-10-09T20:27:11.413Z,5.20
2022-10-09T20:29:39.955Z,5.40
2022-10-09T20:32:08.829Z,5.00
2022-10-09T20:34:37.338Z,4.50
2022-10-09T20:37:05.766Z,4.70
2022-10-09T20:39:34.378Z,5.10
2022-10-09T20:42:03.020Z,5.00
2022-10-09T20:44:31.505Z,5.70
2022-10-09T20:47:00.137Z,4.90
2022-10-09T20:49:29.934Z,4.70
2022-10-09T20:51:58.446Z,4.50
2022-10-09T20:54:27.314Z,5.00
2022-10-09T20:56:55.964Z,5.10
2022-10-09T20:59:24.525Z,5.20
2022-10-09T21:01:53.180Z,4.90
2022-10-09T21:04:21.646Z,5.20
2022-10-09T21:06:50.147Z,4.80
2022-10-09T21:09:18.625Z,5.50
2022-10-09T21:11:47.159Z,5.20
2022-10-09T21:14:15.585Z,5.70
2022-10-09T21:16:44.154Z,5.70
2022-10-09T21:19:12.639Z,5.30
2022-10-09T21:21:41.191Z,4.70
2022-10-09T21:24:09.777Z,5.30
2022-10-09T21:26:39.490Z,5.60
2022-10-09T21:29:07.954Z,5.40
2022-10-09T21:31:36.639Z,5.60
2022-10-09T21:34:05.261Z,5.20
2022-10-09T21:39:46.186Z,4.60
2022-10-09T21:42:14.849Z,4.70
2022-10-09T21:44:43.384Z,4.50
2022-10-09T21:47:21.223Z,5.20
2022-10-09T21:49:49.717Z,4.90
2022-10-09T21:52:18.873Z,5.00
2022-10-09T21:54:47.343Z,5.20
2022-10-09T21:57:15.885Z,4.70
2022-10-09T21:59:44.390Z,4.20
2022-10-09T22:02:12.909Z,4.90
2022-10-09T22:04:41.283Z,5.00
2022-10-09T22:07:09.788Z,5.10
2022-10-09T22:09:38.252Z,5.20
2022-10-09T22:12:06.684Z,5.30
2022-10-09T22:14:35.147Z,4.70
2022-10-09T22:17:03.577Z,4.60
2022-10-09T22:19:32.337Z,4.10
2022-10-09T22:22:00.784Z,4.30
2022-10-09T22:24:30.807Z,4.60
2022-10-09T22:26:59.648Z,4.50
2022-10-09T22:29:28.043Z,4.60
2022-10-09T22:31:56.576Z,4.30
2022-10-09T22:34:25.071Z,4.40
2022-10-09T22:36:53.472Z,4.60
2022-10-09T22:39:21.996Z,4.10
2022-10-09T22:41:50.456Z,4.20
2022-10-09T22:44:18.964Z,4.50
2022-10-09T22:46:50.102Z,4.70
2022-10-09T22:49:18.865Z,4.50
2022-10-09T22:51:47.334Z,4.20
2022-10-09T22:54:15.803Z,3.80
2022-10-09T22:56:46.047Z,3.30
2022-10-09T22:59:18.238Z,3.70
2022-10-09T23:01:57.578Z,3.70
2022-10-09T23:04:26.404Z,3.30
2022-10-09T23:06:59.879Z,3.60
2022-10-09T23:09:32.429Z,4.20
2022-10-09T23:14:29.490Z,2.90
2022-10-09T23:16:58.008Z,3.40
2022-10-09T23:19:26.579Z,3.90
2022-10-09T23:21:55.156Z,3.70
2022-10-09T23:24:23.664Z,3.30
2022-10-09T23:26:52.424Z,3.60
2022-10-09T23:29:21.500Z,3.70
2022-10-09T23:31:53.461Z,3.50
2022-10-09T23:34:22.062Z,3.60
2022-10-09T23:36:50.708Z,3.70
2022-10-09T23:39:19.340Z,3.90
2022-10-09T23:41:47.703Z,4.10
2022-10-09T23:44:21.246Z,3.90
2022-10-09T23:46:50.655Z,3.80
2022-10-09T23:49:19.257Z,3.20
2022-10-09T23:51:47.977Z,3.90
2022-10-09T23:54:16.504Z,4.10
2022-10-09T23:56:45.077Z,3.90
2022-10-09T23:59:13.692Z,4.30
